createdAt,value
2024-04-15T00:01:45.341Z,2.17
2024-04-15T00:04:14.972Z,2.40
2024-04-15T00:06:42.178Z,2.08
2024-04-15T00:09:09.391Z,2.20
2024-04-15T00:11:36.737Z,2.30
2024-04-15T00:14:03.786Z,2.17
2024-04-15T00:16:32.638Z,2.10
2024-04-15T00:18:59.970Z,2.30
2024-04-15T00:21:27.167Z,2.10
2024-04-15T00:23:54.356Z,2.30
2024-04-15T00:26:21.493Z,2.17
2024-04-15T00:28:49.353Z,2.03
2024-04-15T00:31:16.537Z,2.10
2024-04-15T00:33:47.970Z,1.80
2024-04-15T00:36:15.210Z,2.03
2024-04-15T00:38:42.276Z,2.50
2024-04-15T00:41:09.388Z,2.42
2024-04-15T00:43:36.479Z,2.90
2024-04-15T00:46:03.976Z,2.90
2024-04-15T00:48:32.546Z,2.97
2024-04-15T00:50:59.720Z,4.00
2024-04-15T00:53:27.155Z,4.40
2024-04-15T00:55:58.113Z,4.95
2024-04-15T00:58:26.848Z,4.73
2024-04-15T01:00:55.524Z,4.97
2024-04-15T01:03:23.748Z,4.82
2024-04-15T01:05:51.536Z,5.22
2024-04-15T01:08:19.111Z,4.43
2024-04-15T01:10:55.552Z,5.13
2024-04-15T01:13:27.943Z,3.90
2024-04-15T01:16:02.339Z,3.83
2024-04-15T01:18:30.663Z,3.72
2024-04-15T01:20:59.459Z,2.92
2024-04-15T01:23:35.121Z,2.70
2024-04-15T01:26:02.366Z,3.20
2024-04-15T01:28:29.448Z,3.17
2024-04-15T01:30:56.705Z,3.40
2024-04-15T01:33:23.870Z,3.10
2024-04-15T01:35:51.130Z,2.77
2024-04-15T01:38:18.255Z,3.25
2024-04-15T01:40:45.445Z,2.85
2024-04-15T01:43:12.942Z,2.80
2024-04-15T01:45:40.213Z,2.90
2024-04-15T01:48:07.731Z,2.60
2024-04-15T01:50:34.960Z,2.63
2024-04-15T01:53:02.155Z,2.90
2024-04-15T01:55:29.532Z,2.33
2024-04-15T01:57:56.639Z,2.50
2024-04-15T02:00:23.804Z,2.30
2024-04-15T02:02:50.930Z,2.35
2024-04-15T02:05:18.112Z,2.22
2024-04-15T02:07:45.331Z,1.98
2024-04-15T02:10:12.474Z,2.67
2024-04-15T02:12:39.607Z,2.57
2024-04-15T02:15:07.013Z,2.13
2024-04-15T02:17:35.809Z,2.42
2024-04-15T02:20:02.962Z,2.28
2024-04-15T02:22:31.543Z,2.60
2024-04-15T02:24:58.610Z,2.50
2024-04-15T02:27:25.705Z,2.10
2024-04-15T02:29:52.935Z,2.17
2024-04-15T02:32:20.586Z,2.20
2024-04-15T02:34:48.048Z,2.25
2024-04-15T02:37:15.191Z,2.10
2024-04-15T02:39:42.732Z,2.20
2024-04-15T02:42:09.957Z,2.20
2024-04-15T02:44:37.056Z,1.70
2024-04-15T02:47:04.509Z,2.10
2024-04-15T02:49:31.743Z,1.80
2024-04-15T02:51:58.829Z,2.00
2024-04-15T02:54:25.998Z,2.25
2024-04-15T02:56:53.248Z,1.88
2024-04-15T02:59:20.286Z,2.35
2024-04-15T03:01:47.430Z,2.23
2024-04-15T03:04:14.636Z,1.90
2024-04-15T03:06:41.881Z,2.15
2024-04-15T03:09:09.763Z,2.00
2024-04-15T03:11:36.929Z,2.38
2024-04-15T03:14:04.288Z,2.30
2024-04-15T03:16:31.534Z,2.65
2024-04-15T03:18:58.773Z,4.05
2024-04-15T03:21:26.209Z,3.83
2024-04-15T03:23:53.527Z,2.83
2024-04-15T03:26:20.669Z,3.07
2024-04-15T03:28:47.917Z,2.75
2024-04-15T03:31:15.096Z,2.80
2024-04-15T03:33:42.601Z,2.47
2024-04-15T03:36:09.864Z,2.45
2024-04-15T03:38:38.068Z,3.00
2024-04-15T03:41:05.292Z,3.22
2024-04-15T03:43:35.789Z,2.97
2024-04-15T03:46:04.200Z,2.50
2024-04-15T03:48:33.226Z,2.92
2024-04-15T03:51:00.390Z,2.97
2024-04-15T03:53:28.734Z,3.28
2024-04-15T03:55:56.750Z,3.30
2024-04-15T03:58:24.114Z,3.10
2024-04-15T04:00:51.464Z,2.75
2024-04-15T04:03:19.415Z,4.30
2024-04-15T04:06:09.483Z,3.33
2024-04-15T04:08:41.087Z,3.47
2024-04-15T04:11:08.862Z,2.97
2024-04-15T04:13:37.280Z,2.90
2024-04-15T04:16:05.166Z,2.93
2024-04-15T04:18:33.218Z,3.15
2024-04-15T04:21:09.778Z,3.38
2024-04-15T04:23:37.159Z,3.00
2024-04-15T04:26:04.821Z,2.92
2024-04-15T04:28:32.706Z,2.93
2024-04-15T04:31:06.532Z,2.55
2024-04-15T04:33:36.349Z,2.72
2024-04-15T04:36:03.628Z,2.58
2024-04-15T04:38:31.061Z,3.25
2024-04-15T04:41:02.090Z,3.00
2024-04-15T04:43:29.632Z,3.30
2024-04-15T04:45:56.836Z,3.75
2024-04-15T04:48:24.085Z,3.35
2024-04-15T04:50:51.732Z,3.42
2024-04-15T04:53:19.389Z,3.50
2024-04-15T04:55:46.566Z,3.30
2024-04-15T04:58:14.997Z,3.67
2024-04-15T05:00:42.177Z,1.92
2024-04-15T05:03:09.425Z,3.30
2024-04-15T05:05:36.588Z,2.47
2024-04-15T05:08:03.940Z,2.28
2024-04-15T05:10:31.313Z,3.70
2024-04-15T05:12:58.586Z,4.05
2024-04-15T05:15:28.034Z,3.90
2024-04-15T05:17:55.357Z,3.53
2024-04-15T05:20:22.612Z,4.30
2024-04-15T05:22:49.987Z,3.00
2024-04-15T05:25:17.327Z,4.30
2024-04-15T05:27:44.936Z,3.78
2024-04-15T05:30:12.513Z,3.80
2024-04-15T05:32:39.755Z,4.57
2024-04-15T05:35:07.141Z,5.50
2024-04-15T05:37:34.436Z,4.00
2024-04-15T05:40:01.704Z,3.67
2024-04-15T05:42:30.564Z,3.63
2024-04-15T05:44:57.622Z,4.00
2024-04-15T05:47:25.977Z,4.03
2024-04-15T05:49:53.144Z,5.30
2024-04-15T05:52:20.308Z,3.30
2024-04-15T05:54:47.480Z,4.00
2024-04-15T05:57:14.632Z,2.60
2024-04-15T05:59:41.939Z,4.13
2024-04-15T06:02:09.255Z,2.38
2024-04-15T06:04:37.036Z,2.60
2024-04-15T06:07:04.392Z,2.60
2024-04-15T06:09:32.288Z,2.58
2024-04-15T06:11:59.722Z,3.58
2024-04-15T06:14:27.280Z,2.40
2024-04-15T06:16:55.426Z,4.78
2024-04-15T06:19:22.982Z,2.33
2024-04-15T06:21:50.123Z,2.40
2024-04-15T06:24:17.314Z,4.85
2024-04-15T06:26:44.475Z,4.40
2024-04-15T06:29:11.602Z,4.88
2024-04-15T06:31:38.744Z,4.30
2024-04-15T06:34:06.171Z,4.57
2024-04-15T06:36:33.536Z,4.93
2024-04-15T06:39:00.959Z,3.85
2024-04-15T06:41:28.272Z,2.22
2024-04-15T06:43:55.465Z,1.90
2024-04-15T06:46:24.303Z,2.55
2024-04-15T06:48:51.556Z,4.80
2024-04-15T06:51:18.734Z,2.50
2024-04-15T06:53:45.878Z,2.38
2024-04-15T06:56:13.249Z,2.97
2024-04-15T06:58:40.530Z,5.00
2024-04-15T07:01:08.169Z,4.47
2024-04-15T07:03:35.470Z,4.93
2024-04-15T07:06:02.667Z,5.05
2024-04-15T07:08:29.727Z,4.43
2024-04-15T07:10:57.043Z,4.13
2024-04-15T07:13:24.358Z,3.92
2024-04-15T07:15:51.711Z,3.45
2024-04-15T07:18:19.044Z,2.70
2024-04-15T07:20:47.342Z,4.20
2024-04-15T07:23:19.607Z,4.45
2024-04-15T07:25:51.055Z,4.20
2024-04-15T07:28:18.747Z,3.67
2024-04-15T07:30:45.900Z,2.97
2024-04-15T07:33:13.098Z,4.07
2024-04-15T07:35:41.039Z,4.00
2024-04-15T07:38:08.409Z,4.65
2024-04-15T07:40:36.424Z,2.30
2024-04-15T07:43:03.942Z,3.65
2024-04-15T07:45:31.178Z,3.83
2024-04-15T07:47:58.478Z,2.72
2024-04-15T07:50:26.772Z,3.38
2024-04-15T07:52:53.960Z,2.50
2024-04-15T07:55:21.107Z,2.33
2024-04-15T07:57:48.331Z,2.37
2024-04-15T08:00:15.638Z,2.47
2024-04-15T08:02:48.878Z,2.50
2024-04-15T08:05:20.362Z,2.50
2024-04-15T08:07:52.189Z,2.38
2024-04-15T08:10:29.840Z,2.37
2024-04-15T08:12:57.053Z,2.45
2024-04-15T08:15:24.239Z,2.42
2024-04-15T08:17:51.686Z,2.53
2024-04-15T08:20:18.916Z,2.50
2024-04-15T08:22:49.252Z,2.70
2024-04-15T08:25:17.943Z,3.28
2024-04-15T08:27:45.381Z,2.95
2024-04-15T08:30:12.803Z,2.38
2024-04-15T08:32:42.399Z,2.40
2024-04-15T08:35:10.185Z,2.07
2024-04-15T08:37:37.417Z,2.42
2024-04-15T08:40:06.496Z,2.63
2024-04-15T08:42:50.470Z,2.20
2024-04-15T08:45:20.784Z,2.00
2024-04-15T08:47:54.390Z,4.50
2024-04-15T08:50:23.157Z,2.85
2024-04-15T08:52:54.367Z,3.00
2024-04-15T08:55:26.251Z,2.10
2024-04-15T08:57:54.490Z,2.30
2024-04-15T09:00:23.151Z,2.20
2024-04-15T09:02:54.206Z,1.70
2024-04-15T09:05:21.625Z,2.00
2024-04-15T09:07:50.866Z,2.10
2024-04-15T09:10:18.152Z,2.30
2024-04-15T09:12:45.535Z,2.03
2024-04-15T09:15:15.436Z,1.92
2024-04-15T09:17:42.998Z,2.47
2024-04-15T09:20:11.843Z,2.10
2024-04-15T09:22:39.173Z,2.00
2024-04-15T09:25:07.077Z,1.80
2024-04-15T09:27:34.383Z,1.80
2024-04-15T09:30:02.733Z,2.45
2024-04-15T09:32:36.935Z,2.50
2024-04-15T09:35:07.360Z,2.28
2024-04-15T09:37:35.827Z,1.87
2024-04-15T09:40:05.824Z,2.20
2024-04-15T09:42:35.050Z,1.73
2024-04-15T09:45:03.260Z,1.98
2024-04-15T09:47:33.447Z,1.98
2024-04-15T09:50:00.701Z,2.17
2024-04-15T09:52:33.210Z,2.17
2024-04-15T09:55:08.170Z,2.10
2024-04-15T09:57:42.700Z,2.50
2024-04-15T10:00:18.376Z,2.13
2024-04-15T10:03:23.899Z,2.10
2024-04-15T10:05:55.104Z,2.22
2024-04-15T10:08:25.679Z,2.10
2024-04-15T10:10:53.138Z,2.03
2024-04-15T10:13:21.086Z,2.28
2024-04-15T10:16:00.343Z,1.97
2024-04-15T10:18:30.598Z,2.00
2024-04-15T10:21:00.573Z,2.22
2024-04-15T10:23:29.444Z,2.20
2024-04-15T10:25:56.643Z,2.30
2024-04-15T10:28:23.982Z,2.30
2024-04-15T10:30:51.332Z,2.13
2024-04-15T10:33:21.503Z,2.10
2024-04-15T10:35:53.849Z,2.17
2024-04-15T10:38:21.452Z,2.38
2024-04-15T10:40:50.090Z,2.07
2024-04-15T10:48:10.759Z,1.90
2024-04-15T10:50:41.427Z,2.10
2024-04-15T10:53:57.952Z,2.33
2024-04-15T10:56:52.669Z,2.30
2024-04-15T10:59:20.230Z,1.85
2024-04-15T11:01:47.642Z,2.40
2024-04-15T11:04:15.672Z,2.20
2024-04-15T11:06:43.339Z,2.05
2024-04-15T11:09:10.993Z,2.23
2024-04-15T11:11:41.832Z,2.50
2024-04-15T11:14:13.964Z,2.05
2024-04-15T11:16:51.034Z,1.80
2024-04-15T11:19:19.755Z,2.30
2024-04-15T11:21:47.725Z,2.70
2024-04-15T11:24:15.385Z,1.70
2024-04-15T11:26:46.099Z,2.20
2024-04-15T11:29:14.921Z,2.03
2024-04-15T11:31:43.228Z,2.30
2024-04-15T11:34:12.107Z,2.57
2024-04-15T11:36:41.859Z,2.33
2024-04-15T11:39:09.212Z,2.65
2024-04-15T11:41:37.414Z,2.30
2024-04-15T11:44:05.092Z,2.28
2024-04-15T11:46:32.637Z,1.80
2024-04-15T11:49:00.725Z,2.00
2024-04-15T11:51:28.551Z,2.92
2024-04-15T11:53:57.322Z,2.38
2024-04-15T11:56:24.729Z,3.00
2024-04-15T11:58:52.370Z,2.40
2024-04-15T12:01:20.243Z,2.72
2024-04-15T12:03:47.673Z,2.45
2024-04-15T12:06:18.798Z,2.80
2024-04-15T12:08:56.639Z,2.60
2024-04-15T12:11:24.363Z,2.40
2024-04-15T12:13:51.562Z,2.20
2024-04-15T12:16:18.789Z,2.05
2024-04-15T12:18:46.130Z,2.15
2024-04-15T12:21:13.280Z,2.60
2024-04-15T12:23:40.390Z,2.53
2024-04-15T12:26:08.321Z,2.20
2024-04-15T12:28:35.533Z,2.40
2024-04-15T12:31:02.721Z,2.50
2024-04-15T12:33:32.565Z,2.85
2024-04-15T12:36:00.889Z,2.23
2024-04-15T12:38:28.266Z,2.90
2024-04-15T12:40:55.955Z,2.30
2024-04-15T12:43:23.191Z,2.35
2024-04-15T12:45:50.390Z,3.00
2024-04-15T12:48:19.435Z,2.63
2024-04-15T12:50:49.456Z,2.88
2024-04-15T12:53:19.899Z,2.90
2024-04-15T12:55:47.849Z,2.42
2024-04-15T12:58:15.219Z,2.10
2024-04-15T13:00:43.906Z,2.27
2024-04-15T13:03:11.850Z,2.85
2024-04-15T13:05:39.269Z,2.80
2024-04-15T13:08:07.091Z,2.50
2024-04-15T13:10:34.512Z,2.55
2024-04-15T13:13:01.872Z,2.10
2024-04-15T13:15:29.101Z,2.10
2024-04-15T13:17:59.764Z,2.92
2024-04-15T13:20:27.467Z,1.90
2024-04-15T13:22:57.689Z,2.85
2024-04-15T13:25:24.974Z,2.17
2024-04-15T13:27:52.169Z,2.50
2024-04-15T13:30:19.379Z,2.60
2024-04-15T13:32:46.990Z,2.10
2024-04-15T13:35:14.534Z,2.30
2024-04-15T13:37:42.219Z,2.07
2024-04-15T13:40:09.706Z,2.85
2024-04-15T13:42:36.898Z,2.92
2024-04-15T13:45:04.790Z,2.28
2024-04-15T13:47:32.623Z,2.10
2024-04-15T13:49:59.885Z,2.17
2024-04-15T13:52:32.013Z,1.90
2024-04-15T13:55:00.385Z,2.15
2024-04-15T13:57:30.301Z,2.33
2024-04-15T13:59:58.622Z,2.40
2024-04-15T14:02:26.939Z,2.30
2024-04-15T14:04:54.382Z,1.90
2024-04-15T14:07:26.788Z,2.50
2024-04-15T14:09:58.157Z,2.00
2024-04-15T14:12:25.419Z,2.40
2024-04-15T14:14:52.647Z,2.30
2024-04-15T14:17:20.594Z,1.83
2024-04-15T14:19:48.250Z,2.33
2024-04-15T14:22:15.583Z,2.08
2024-04-15T14:24:43.234Z,2.15
2024-04-15T14:27:11.090Z,2.23
2024-04-15T14:29:40.277Z,2.25
2024-04-15T14:32:18.128Z,2.40
2024-04-15T14:34:47.617Z,2.13
2024-04-15T14:37:16.428Z,1.90
2024-04-15T14:39:43.635Z,2.00
2024-04-15T14:42:10.963Z,2.20
2024-04-15T14:44:38.217Z,2.67
2024-04-15T14:47:05.835Z,2.03
2024-04-15T14:49:33.222Z,1.90
2024-04-15T14:52:00.482Z,2.10
2024-04-15T14:54:27.614Z,2.30
2024-04-15T14:56:54.952Z,2.70
2024-04-15T14:59:22.188Z,2.20
2024-04-15T15:01:49.461Z,2.28
2024-04-15T15:04:18.390Z,1.73
2024-04-15T15:06:45.649Z,1.88
2024-04-15T15:09:14.328Z,2.03
2024-04-15T15:11:41.448Z,2.08
2024-04-15T15:14:08.708Z,2.47
2024-04-15T15:16:36.165Z,2.50
2024-04-15T15:19:04.072Z,2.17
2024-04-15T15:21:31.215Z,2.45
2024-04-15T15:23:58.278Z,2.05
2024-04-15T15:26:26.089Z,1.70
2024-04-15T15:28:53.301Z,1.90
2024-04-15T15:31:20.496Z,1.92
2024-04-15T15:33:51.287Z,1.95
2024-04-15T15:36:20.385Z,1.25
2024-04-15T15:38:48.109Z,1.45
2024-04-15T15:41:18.279Z,1.50
2024-04-15T15:43:45.540Z,1.50
2024-04-15T15:46:17.955Z,1.50
2024-04-15T15:48:46.979Z,1.33
2024-04-15T15:51:14.140Z,1.95
2024-04-15T15:53:42.527Z,1.70
2024-04-15T15:56:12.177Z,1.50
2024-04-15T15:58:40.359Z,1.52
2024-04-15T16:01:08.126Z,1.60
2024-04-15T16:03:35.358Z,1.90
2024-04-15T16:06:02.986Z,2.00
2024-04-15T16:08:31.218Z,1.60
2024-04-15T16:10:58.514Z,1.83
2024-04-15T16:13:25.839Z,1.77
2024-04-15T16:15:53.046Z,2.00
2024-04-15T16:18:20.273Z,2.00
2024-04-15T16:20:50.140Z,2.33
2024-04-15T16:23:17.292Z,2.20
2024-04-15T16:25:44.441Z,2.33
2024-04-15T16:28:12.254Z,2.25
2024-04-15T16:30:39.394Z,1.90
2024-04-15T16:33:06.736Z,2.00
2024-04-15T16:35:33.968Z,2.33
2024-04-15T16:38:01.201Z,1.90
2024-04-15T16:40:28.629Z,2.50
2024-04-15T16:42:55.950Z,1.87
2024-04-15T16:45:23.466Z,2.10
2024-04-15T16:47:51.439Z,2.20
2024-04-15T16:50:23.956Z,1.73
2024-04-15T16:52:51.108Z,2.13
2024-04-15T16:55:18.627Z,2.10
2024-04-15T16:57:45.842Z,1.75
2024-04-15T17:00:14.348Z,2.10
2024-04-15T17:02:41.895Z,2.13
2024-04-15T17:05:10.108Z,2.33
2024-04-15T17:07:41.499Z,2.40
2024-04-15T17:10:13.259Z,2.05
2024-04-15T17:12:45.206Z,2.00
2024-04-15T17:15:14.339Z,2.60
2024-04-15T17:17:43.487Z,2.58
2024-04-15T17:20:13.766Z,2.80
2024-04-15T17:22:42.228Z,2.50
2024-04-15T17:25:09.570Z,2.33
2024-04-15T17:27:37.115Z,2.30
2024-04-15T17:30:05.383Z,2.10
2024-04-15T17:32:32.768Z,2.00
2024-04-15T17:35:02.373Z,2.08
2024-04-15T17:37:31.558Z,2.00
2024-04-15T17:40:01.221Z,1.83
2024-04-15T17:42:31.301Z,2.10
2024-04-15T17:44:58.487Z,2.20
2024-04-15T17:47:25.744Z,2.40
2024-04-15T17:49:53.516Z,2.20
2024-04-15T17:52:21.856Z,2.30
2024-04-15T17:54:49.312Z,2.50
2024-04-15T17:57:17.805Z,2.03
2024-04-15T17:59:45.428Z,1.88
2024-04-15T18:02:13.123Z,2.53
2024-04-15T18:04:41.645Z,2.28
2024-04-15T18:07:11.388Z,2.30
2024-04-15T18:09:39.871Z,2.50
2024-04-15T18:12:08.752Z,2.20
2024-04-15T18:14:36.226Z,2.95
2024-04-15T18:17:03.926Z,2.35
2024-04-15T18:19:31.331Z,2.78
2024-04-15T18:21:58.746Z,2.30
2024-04-15T18:24:28.858Z,2.22
2024-04-15T18:26:56.446Z,2.85
2024-04-15T18:29:23.808Z,2.38
2024-04-15T18:31:51.006Z,2.60
2024-04-15T18:34:18.220Z,2.70
2024-04-15T18:36:48.748Z,2.92
2024-04-15T18:39:17.031Z,2.35
2024-04-15T18:41:44.261Z,2.50
2024-04-15T18:44:11.524Z,2.63
2024-04-15T18:46:38.744Z,2.03
2024-04-15T18:49:06.990Z,2.17
2024-04-15T18:51:34.352Z,2.80
2024-04-15T18:54:01.504Z,2.22
2024-04-15T18:56:28.849Z,2.53
2024-04-15T18:58:56.013Z,2.23
2024-04-15T19:01:23.187Z,2.10
2024-04-15T19:03:50.583Z,2.03
2024-04-15T19:06:18.186Z,1.90
2024-04-15T19:08:45.297Z,2.15
2024-04-15T19:11:12.560Z,2.13
2024-04-15T19:13:39.725Z,5.32
2024-04-15T19:16:08.867Z,2.88
2024-04-15T19:18:36.349Z,2.42
2024-04-15T19:21:03.807Z,2.50
2024-04-15T19:23:30.904Z,2.20
2024-04-15T19:25:58.794Z,2.20
2024-04-15T19:28:26.065Z,2.30
2024-04-15T19:30:53.211Z,2.10
2024-04-15T19:33:21.725Z,2.40
2024-04-15T19:35:49.152Z,2.43
2024-04-15T19:38:16.441Z,2.05
2024-04-15T19:40:43.868Z,2.00
2024-04-15T19:43:11.194Z,2.03
2024-04-15T19:45:38.677Z,2.40
2024-04-15T19:48:06.332Z,1.90
2024-04-15T19:50:33.580Z,2.00
2024-04-15T19:53:01.151Z,2.42
2024-04-15T19:55:28.691Z,1.95
2024-04-15T19:57:56.147Z,2.28
2024-04-15T20:00:23.264Z,2.30
2024-04-15T20:02:50.649Z,2.60
2024-04-15T20:05:17.864Z,3.80
2024-04-15T20:07:46.829Z,2.97
2024-04-15T20:10:14.019Z,3.25
2024-04-15T20:12:41.239Z,2.57
2024-04-15T20:15:08.466Z,2.53
2024-04-15T20:17:44.173Z,3.25
2024-04-15T20:20:16.169Z,2.53
2024-04-15T20:22:44.364Z,2.80
2024-04-15T20:25:12.171Z,2.20
2024-04-15T20:27:39.744Z,2.15
2024-04-15T20:30:08.044Z,2.20
2024-04-15T20:32:35.279Z,2.30
2024-04-15T20:35:02.578Z,2.72
2024-04-15T20:37:30.821Z,1.93
2024-04-15T20:39:58.125Z,2.55
2024-04-15T20:42:25.241Z,2.78
2024-04-15T20:44:54.359Z,2.10
2024-04-15T20:47:23.170Z,2.40
2024-04-15T20:49:50.353Z,2.03
2024-04-15T20:52:20.178Z,2.13
2024-04-15T20:54:47.403Z,2.45
2024-04-15T20:57:14.652Z,2.17
2024-04-15T20:59:41.786Z,2.60
2024-04-15T21:02:08.935Z,1.97
2024-04-15T21:04:36.301Z,2.35
2024-04-15T21:07:03.938Z,3.00
2024-04-15T21:09:31.020Z,2.38
2024-04-15T21:12:03.869Z,2.20
2024-04-15T21:14:31.232Z,2.40
2024-04-15T21:16:59.328Z,2.47
2024-04-15T21:19:26.561Z,2.42
2024-04-15T21:21:54.033Z,2.33
2024-04-15T21:24:21.219Z,2.03
2024-04-15T21:26:48.475Z,2.10
2024-04-15T21:29:15.638Z,1.83
2024-04-15T21:31:42.838Z,2.00
2024-04-15T21:34:10.152Z,1.90
2024-04-15T21:36:37.264Z,1.98
2024-04-15T21:39:04.540Z,2.00
2024-04-15T21:41:31.747Z,2.08
2024-04-15T21:43:58.897Z,2.35
2024-04-15T21:46:26.025Z,2.30
2024-04-15T21:48:53.265Z,1.92
2024-04-15T21:51:20.790Z,1.80
2024-04-15T21:53:47.912Z,1.90
2024-04-15T21:56:15.050Z,2.10
2024-04-15T21:58:43.247Z,2.30
2024-04-15T22:01:10.401Z,2.10
2024-04-15T22:03:37.695Z,1.83
2024-04-15T22:06:05.143Z,1.90
2024-04-15T22:08:33.667Z,1.90
2024-04-15T22:11:01.135Z,2.00
2024-04-15T22:13:28.801Z,1.90
2024-04-15T22:15:56.023Z,1.50
2024-04-15T22:18:23.262Z,1.80
2024-04-15T22:20:50.488Z,1.67
2024-04-15T22:23:17.735Z,1.73
2024-04-15T22:25:53.431Z,2.05
2024-04-15T22:28:21.753Z,2.27
2024-04-15T22:30:50.420Z,1.90
2024-04-15T22:33:18.166Z,1.88
2024-04-15T22:35:45.436Z,2.03
2024-04-15T22:38:15.430Z,2.20
2024-04-15T22:40:43.228Z,2.17
2024-04-15T22:43:12.662Z,1.85
2024-04-15T22:45:40.460Z,2.30
2024-04-15T22:48:07.894Z,2.50
2024-04-15T22:50:35.149Z,2.20
2024-04-15T22:53:02.234Z,2.00
2024-04-15T22:55:29.485Z,2.30
2024-04-15T22:57:56.775Z,2.30
2024-04-15T23:00:23.873Z,2.00
2024-04-15T23:02:51.037Z,2.25
2024-04-15T23:05:18.207Z,1.90
2024-04-15T23:07:45.359Z,2.08
2024-04-15T23:10:12.560Z,2.00
2024-04-15T23:12:39.789Z,1.85
2024-04-15T23:15:06.841Z,1.92
2024-04-15T23:17:34.138Z,1.73
2024-04-15T23:20:01.437Z,1.65
2024-04-15T23:22:30.657Z,1.60
2024-04-15T23:24:58.240Z,1.95
2024-04-15T23:27:25.531Z,2.08
2024-04-15T23:29:52.707Z,1.77
2024-04-15T23:32:19.795Z,1.80
2024-04-15T23:34:46.800Z,1.73
2024-04-15T23:37:13.843Z,1.83
2024-04-15T23:39:41.038Z,2.25
2024-04-15T23:42:08.291Z,2.10
2024-04-15T23:44:35.343Z,2.08
2024-04-15T23:47:21.385Z,2.10
2024-04-15T23:50:07.586Z,1.83
2024-04-15T23:52:54.011Z,2.22
2024-04-15T23:55:40.210Z,2.10
2024-04-15T23:58:13.359Z,2.55
